CYHE

Hope Airport

Hope, British Columbia, Canada
METAR CYHE 250500Z AUTO 28008G15KT 230V330 9SM CLR 18/11 A2998 RMK SLP153 DENSITY ALT 300FT
Observed Flight Rules
May-25 @ 05:00 UTC (16 minutes ago) Visual Flight Rules
Wind Visibility Clouds
280° at 8 knots
 Gusting to 15 knots
9 miles
  • Clear skies
Temperatures Readings
Current 18°C / 64°F
Dewpoint 11°C / 52°F
Humidity 64%
Altimeter 29.98" Hg
Pressure 1015.3 hPa
Elevation 39
METAR CYHE 250500Z AUTO 28008G15KT 230V330 9SM CLR 18/11 A2998 RMK SLP153 DENSITY ALT 300FT
Observed Flight Rules
May-25 @ 05:00 UTC
(16 minutes ago)
VFR
Wind Visibility
280° at 8 knots
 Gusting to 15 knots
9 miles
Clouds
  • Clear skies
Temperature Dewpoint
18°C / 64°F 11°C / 52°F
Humidity Altimeter Pressure
64% 29.98" Hg 1015.3 hPa